Time;durP1;ratioP1;P1;durP2;ratioP2;P2;SDS_P1;SDS_P2;PMS_P1;PMS_P2;Temp;Humidity;BMP_temperature;BMP_pressure;BME280_temperature;BME280_humidity;BME280_pressure;Samples;Min_cycle;Max_cycle;Signal;HPM_P1;HPM_P2
2021/12/15 00:02:02;;;;;;;36.40;24.30;;;;;;;8.29;33.11;102463.28;4993758;28;20927;-42
2021/12/15 00:04:30;;;;;;;47.90;27.60;;;;;;;8.31;32.72;102465.78;4992994;28;20493;-43
2021/12/15 00:06:58;;;;;;;37.63;26.90;;;;;;;8.34;32.33;102462.84;4993706;28;20434;-45
2021/12/15 00:09:27;;;;;;;45.57;26.83;;;;;;;8.35;33.24;102461.88;4993644;28;20438;-46
2021/12/15 00:11:55;;;;;;;46.63;28.70;;;;;;;8.36;33.46;102458.25;4993597;28;20939;-42
2021/12/15 00:14:22;;;;;;;43.67;27.60;;;;;;;8.37;33.15;102453.75;4992975;28;20462;-44
2021/12/15 00:16:51;;;;;;;44.17;27.47;;;;;;;8.35;32.78;102448.59;4993469;28;20927;-42
2021/12/15 00:19:20;;;;;;;49.27;29.67;;;;;;;8.38;32.27;102453.63;4993547;28;20838;-44
2021/12/15 00:21:48;;;;;;;48.77;26.37;;;;;;;8.38;32.71;102444.81;4993338;28;20443;-45
2021/12/15 00:24:16;;;;;;;35.87;25.90;;;;;;;8.36;32.79;102449.44;4992525;28;20470;-44
2021/12/15 00:26:44;;;;;;;40.33;26.97;;;;;;;8.39;33.07;102454.47;4993255;28;20441;-45
2021/12/15 00:29:11;;;;;;;42.40;28.17;;;;;;;8.40;34.11;102449.00;4993460;28;20651;-43
2021/12/15 00:31:39;;;;;;;43.20;27.00;;;;;;;8.42;34.84;102451.53;4993167;28;20438;-43
2021/12/15 00:34:08;;;;;;;41.50;27.30;;;;;;;8.43;35.79;102451.38;4992651;28;20474;-43
2021/12/15 00:36:37;;;;;;;39.70;26.97;;;;;;;8.43;35.38;102455.84;4993193;28;20426;-44
2021/12/15 00:39:07;;;;;;;40.03;27.03;;;;;;;8.46;35.31;102450.25;4992920;28;20434;-43
2021/12/15 00:41:35;;;;;;;49.00;28.90;;;;;;;8.45;36.75;102449.44;4993547;28;20441;-43
2021/12/15 00:44:03;;;;;;;42.40;27.27;;;;;;;8.46;36.16;102453.75;4992012;28;20989;-44
2021/12/15 00:46:31;;;;;;;35.60;25.20;;;;;;;8.47;37.08;102455.44;4992984;28;20921;-42
2021/12/15 00:48:59;;;;;;;37.30;24.53;;;;;;;8.48;36.88;102453.63;4993028;28;20832;-44
2021/12/15 00:51:27;;;;;;;37.53;24.97;;;;;;;8.50;38.19;102456.97;4992777;28;20429;-43
2021/12/15 00:53:56;;;;;;;40.83;26.50;;;;;;;8.49;39.40;102452.63;4992101;28;20474;-43
2021/12/15 00:56:24;;;;;;;45.87;28.03;;;;;;;8.51;40.28;102453.34;4992962;28;20434;-44
2021/12/15 00:58:52;;;;;;;37.60;26.50;;;;;;;8.51;40.32;102446.19;4992417;28;20943;-44
2021/12/15 01:01:23;;;;;;;38.23;25.20;;;;;;;8.49;41.69;102442.84;4992763;28;20916;-41
2021/12/15 01:03:51;;;;;;;39.80;26.57;;;;;;;8.50;41.16;102452.50;4991839;28;20584;-41
2021/12/15 01:06:20;;;;;;;43.40;26.07;;;;;;;8.52;41.35;102449.69;4992866;28;20457;-41
2021/12/15 01:08:56;;;;;;;36.23;26.30;;;;;;;8.51;41.91;102451.50;4992797;28;20482;-41
2021/12/15 01:11:44;;;;;;;50.13;26.27;;;;;;;8.52;42.22;102453.19;4993228;28;20425;-42
2021/12/15 01:14:33;;;;;;;42.77;26.13;;;;;;;8.51;42.72;102435.56;4991895;28;20476;-43
2021/12/15 01:19:53;;;;;;;41.60;27.00;;;;;;;8.51;44.21;102440.06;4992590;28;20518;-44
2021/12/15 01:22:28;;;;;;;38.60;25.47;;;;;;;8.50;45.60;102430.38;4992471;28;20430;-42
2021/12/15 01:25:00;;;;;;;37.40;26.00;;;;;;;8.48;45.73;102429.69;4991783;28;20474;-43
2021/12/15 01:27:29;;;;;;;44.57;26.63;;;;;;;8.47;46.20;102428.00;4992845;28;20434;-46
2021/12/15 01:29:57;;;;;;;39.50;24.30;;;;;;;8.44;45.47;102426.47;4992760;28;20433;-48
2021/12/15 01:32:25;;;;;;;43.67;26.20;;;;;;;8.41;44.28;102426.75;4992433;28;20442;-40
2021/12/15 01:34:53;;;;;;;38.13;24.03;;;;;;;8.42;43.37;102439.09;4992018;28;20457;-46
2021/12/15 01:37:20;;;;;;;36.67;23.57;;;;;;;8.40;43.64;102433.06;4992342;28;20434;-48
2021/12/15 01:39:53;;;;;;;40.53;27.03;;;;;;;8.43;41.79;102431.94;4992508;28;20915;-44
2021/12/15 01:42:21;;;;;;;33.93;23.87;;;;;;;8.40;42.41;102435.72;4992435;28;20430;-46
2021/12/15 01:47:35;;;;;;;41.90;26.27;;;;;;;8.43;42.00;102434.59;4973152;28;20430;-45
2021/12/15 01:50:04;;;;;;;37.63;23.67;;;;;;;8.44;41.32;102438.94;4972872;28;20451;-43
2021/12/15 01:52:36;;;;;;;43.43;25.90;;;;;;;8.47;41.04;102438.66;4973030;28;20434;-43
2021/12/15 01:55:10;;;;;;;40.63;26.17;;;;;;;8.47;40.56;102443.97;4953264;28;20468;-43
2021/12/15 01:57:39;;;;;;;52.83;27.17;;;;;;;8.44;39.70;102439.78;4953687;29;20435;-44
2021/12/15 02:00:12;;;;;;;48.30;29.30;;;;;;;8.47;39.95;102438.66;4953612;29;20807;-47
2021/12/15 02:02:41;;;;;;;48.53;28.17;;;;;;;8.42;38.78;102428.44;4953568;29;20823;-43
2021/12/15 02:05:09;;;;;;;48.93;26.60;;;;;;;8.44;38.90;102436.28;4953040;28;20484;-43
2021/12/15 02:07:37;;;;;;;48.30;27.00;;;;;;;8.43;37.73;102437.25;4953434;29;20925;-43
2021/12/15 02:10:07;;;;;;;52.30;28.77;;;;;;;8.41;37.88;102433.91;4954256;28;20443;-43
2021/12/15 02:12:56;;;;;;;57.03;27.27;;;;;;;8.41;37.49;102424.09;4957003;29;20451;-43
2021/12/15 02:15:29;;;;;;;49.37;28.40;;;;;;;8.42;38.01;102427.63;4956757;28;20463;-44
2021/12/15 02:17:57;;;;;;;52.93;27.80;;;;;;;8.41;38.85;102429.44;4957388;29;20442;-43
2021/12/15 02:20:29;;;;;;;54.17;27.83;;;;;;;8.41;38.88;102420.59;4957091;29;20519;-45
2021/12/15 02:22:57;;;;;;;50.70;29.47;;;;;;;8.41;39.23;102429.44;4956921;29;20459;-45
2021/12/15 02:25:25;;;;;;;49.90;26.97;;;;;;;8.42;39.06;102424.94;4956424;28;20509;-43
2021/12/15 02:27:53;;;;;;;51.47;29.03;;;;;;;8.41;39.28;102425.91;4957251;29;20797;-43
2021/12/15 02:30:40;;;;;;;44.77;29.17;;;;;;;8.44;38.96;102430.97;4957050;29;20439;-44
2021/12/15 02:33:34;;;;;;;46.40;27.00;;;;;;;8.42;39.31;102430.28;4956610;29;20452;-44
2021/12/15 02:38:46;;;;;;;47.20;25.77;;;;;;;8.40;38.05;102429.56;4963907;28;20447;-42
2021/12/15 02:41:20;;;;;;;42.50;27.20;;;;;;;8.41;37.23;102429.44;4976509;28;20489;-43
2021/12/15 02:43:49;;;;;;;55.07;27.20;;;;;;;8.41;36.98;102423.25;4975175;28;20466;-43
2021/12/15 02:46:17;;;;;;;47.07;27.77;;;;;;;8.42;36.60;102438.25;4975698;28;20481;-45
2021/12/15 02:48:45;;;;;;;45.67;27.10;;;;;;;8.41;34.73;102428.56;4975769;28;20446;-43
2021/12/15 02:51:15;;;;;;;59.00;31.60;;;;;;;8.43;33.67;102422.13;4975941;28;20441;-43
2021/12/15 02:53:43;;;;;;;50.60;25.97;;;;;;;8.43;33.23;102426.59;4974943;28;20459;-44
2021/12/15 02:56:10;;;;;;;54.10;28.20;;;;;;;8.43;33.28;102416.81;4975731;28;20435;-43
2021/12/15 02:58:47;;;;;;;46.43;30.13;;;;;;;8.43;31.94;102418.63;4975969;28;20439;-44
2021/12/15 03:01:22;;;;;;;52.30;30.57;;;;;;;8.43;32.26;102426.59;4976086;28;20462;-44
2021/12/15 03:04:10;;;;;;;64.70;30.57;;;;;;;8.43;31.49;102423.94;4974979;28;20500;-43
2021/12/15 03:06:47;;;;;;;53.83;29.80;;;;;;;8.42;30.76;102423.13;4975499;28;20442;-44
2021/12/15 03:15:17;;;;;;;60.30;30.77;;;;;;;8.45;29.97;102424.66;4975389;28;20806;-42
2021/12/15 03:17:41;;;;;;;69.70;29.80;;;;;;;8.46;27.75;102408.56;4975196;28;20439;-44
2021/12/15 03:20:11;;;;;;;63.77;30.47;;;;;;;8.48;26.62;102411.94;4975347;28;20796;-43
2021/12/15 03:22:43;;;;;;;61.97;30.97;;;;;;;8.47;27.19;102423.53;4974855;28;20440;-43
2021/12/15 03:25:10;;;;;;;50.77;28.53;;;;;;;8.49;25.52;102428.69;4974740;28;20479;-43
2021/12/15 03:33:35;;;;;;;46.70;28.67;;;;;;;8.47;23.44;102431.53;4974811;28;20612;-44
2021/12/15 03:36:08;;;;;;;50.77;29.27;;;;;;;8.53;22.82;102433.59;4974830;28;20516;-42
2021/12/15 03:38:38;;;;;;;50.60;29.03;;;;;;;8.56;24.09;102432.47;4973135;28;20434;-42
2021/12/15 03:41:09;;;;;;;59.53;30.20;;;;;;;8.55;24.75;102434.28;4974933;28;20432;-42
2021/12/15 03:43:38;;;;;;;60.23;29.87;;;;;;;8.56;24.43;102433.31;4974138;28;20847;-42
2021/12/15 03:46:11;;;;;;;68.17;30.37;;;;;;;8.56;23.18;102441.31;4975047;28;20475;-43
2021/12/15 03:48:42;;;;;;;49.30;31.17;;;;;;;8.59;22.89;102437.50;4974682;28;21007;-44
2021/12/15 03:51:12;;;;;;;57.93;29.17;;;;;;;8.59;23.85;102432.19;4975002;28;20467;-43
2021/12/15 03:53:44;;;;;;;53.63;29.20;;;;;;;8.61;23.01;102427.56;4974049;28;20458;-42
2021/12/15 03:56:14;;;;;;;49.73;29.73;;;;;;;8.61;22.96;102420.44;4974623;28;20427;-42
2021/12/15 03:58:42;;;;;;;56.47;30.60;;;;;;;8.62;22.03;102426.59;4974749;28;20435;-43
2021/12/15 04:01:12;;;;;;;66.60;28.53;;;;;;;8.62;22.75;102430.09;4974133;28;20442;-45
2021/12/15 04:03:43;;;;;;;72.07;30.40;;;;;;;8.63;21.68;102418.47;4973599;28;20809;-43
2021/12/15 04:06:16;;;;;;;68.53;30.30;;;;;;;8.63;21.00;102418.47;4974329;28;20988;-42
2021/12/15 04:08:45;;;;;;;65.53;31.93;;;;;;;8.64;20.25;102411.31;4974373;28;20457;-42
2021/12/15 04:11:16;;;;;;;64.43;30.03;;;;;;;8.68;20.23;102412.72;4974420;28;20682;-43
2021/12/15 04:13:46;;;;;;;59.40;29.40;;;;;;;8.68;20.49;102418.03;4973475;28;20467;-43
2021/12/15 04:16:38;;;;;;;69.20;30.10;;;;;;;8.67;19.37;102419.00;4974442;28;20438;-43
2021/12/15 04:19:07;;;;;;;69.07;29.60;;;;;;;8.69;18.56;102415.22;4974191;28;20451;-47
2021/12/15 04:21:35;;;;;;;56.50;29.17;;;;;;;8.70;17.39;102426.72;4974152;28;20458;-45
2021/12/15 04:24:05;;;;;;;58.83;28.50;;;;;;;8.72;17.64;102422.09;4973239;28;20475;-44
2021/12/15 04:26:33;;;;;;;59.03;28.47;;;;;;;8.71;17.48;102413.28;4973823;28;20477;-42
2021/12/15 04:29:02;;;;;;;61.93;29.70;;;;;;;8.74;16.79;102414.81;4973993;28;20963;-44
2021/12/15 04:31:33;;;;;;;56.87;28.20;;;;;;;8.75;16.38;102419.97;4973977;28;20446;-44
2021/12/15 04:34:06;;;;;;;69.80;29.97;;;;;;;8.77;16.67;102415.38;4972618;28;20474;-42
2021/12/15 04:36:38;;;;;;;59.03;31.37;;;;;;;8.80;17.14;102403.59;4973917;28;20432;-44
2021/12/15 04:39:10;;;;;;;72.73;32.80;;;;;;;8.82;17.66;102420.25;4974049;28;20807;-43
2021/12/15 04:41:37;;;;;;;62.83;30.00;;;;;;;8.83;17.25;102414.78;4973752;28;20916;-44
2021/12/15 04:44:10;;;;;;;55.07;31.60;;;;;;;8.82;16.89;102421.09;4972906;28;20474;-43
2021/12/15 04:46:40;;;;;;;60.00;32.60;;;;;;;8.85;16.28;102422.59;4973651;28;20532;-45
2021/12/15 04:49:10;;;;;;;59.63;30.37;;;;;;;8.86;17.42;102433.13;4973969;28;20443;-43
2021/12/15 04:51:38;;;;;;;73.40;33.93;;;;;;;8.86;17.60;102426.97;4974310;28;20435;-43
2021/12/15 04:54:07;;;;;;;61.63;30.47;;;;;;;8.87;16.60;102432.13;4973084;28;20470;-43
2021/12/15 04:56:37;;;;;;;63.50;30.70;;;;;;;8.88;15.91;102430.31;4973679;28;20435;-43
2021/12/15 04:59:05;;;;;;;58.03;31.60;;;;;;;8.88;15.70;102435.63;4973650;28;21153;-44
2021/12/15 05:01:33;;;;;;;60.40;31.60;;;;;;;8.88;16.22;102436.47;4973283;28;20446;-43
2021/12/15 05:04:01;;;;;;;56.43;29.10;;;;;;;8.90;16.89;102434.50;4972735;28;20491;-42
2021/12/15 05:06:28;;;;;;;65.93;32.00;;;;;;;8.92;16.75;102433.53;4973458;28;20479;-45
2021/12/15 05:08:56;;;;;;;58.37;30.17;;;;;;;8.90;18.06;102428.31;4973340;28;20450;-43
2021/12/15 05:11:25;;;;;;;56.20;29.73;;;;;;;8.90;18.11;102437.16;4973339;28;20447;-42
2021/12/15 05:13:53;;;;;;;56.50;30.93;;;;;;;8.88;17.87;102438.28;4972524;28;20467;-43
2021/12/15 05:16:21;;;;;;;64.70;30.87;;;;;;;8.87;18.21;102436.59;4974163;28;20438;-45
2021/12/15 05:18:49;;;;;;;70.77;30.60;;;;;;;8.82;17.35;102425.56;4975063;28;20442;-42
2021/12/15 05:21:18;;;;;;;65.40;29.97;;;;;;;8.82;17.30;102420.25;4973470;28;20439;-44
2021/12/15 05:23:53;;;;;;;64.07;31.83;;;;;;;8.77;17.39;102431.31;4972499;28;20465;-44
2021/12/15 05:26:22;;;;;;;69.70;32.50;;;;;;;8.76;18.48;102426.13;4973153;28;20478;-43
2021/12/15 05:28:52;;;;;;;76.90;32.30;;;;;;;8.74;18.31;102418.31;4973038;28;20940;-43
2021/12/15 05:31:20;;;;;;;77.50;32.20;;;;;;;8.72;17.96;102428.25;4973267;28;20459;-44
2021/12/15 05:33:48;;;;;;;87.63;32.90;;;;;;;8.71;17.19;102436.38;4972464;28;20518;-43
2021/12/15 05:36:16;;;;;;;84.70;35.27;;;;;;;8.68;17.21;102434.84;4973130;28;20961;-44
2021/12/15 05:38:43;;;;;;;78.53;33.57;;;;;;;8.64;14.34;102437.91;4972956;28;20435;-44
2021/12/15 05:41:11;;;;;;;75.77;33.10;;;;;;;8.65;12.85;102440.44;4972798;28;20438;-45
2021/12/15 05:43:39;;;;;;;78.87;31.90;;;;;;;8.67;12.53;102442.94;4971978;28;20459;-43
2021/12/15 05:46:08;;;;;;;100.30;35.00;;;;;;;8.66;12.36;102452.75;4975426;28;20485;-43
2021/12/15 05:48:35;;;;;;;88.57;32.70;;;;;;;8.63;11.64;102455.69;4977014;28;20843;-42
2021/12/15 05:51:07;;;;;;;88.27;32.80;;;;;;;8.64;10.99;102460.03;4976965;28;20438;-42
2021/12/15 05:53:35;;;;;;;85.87;32.87;;;;;;;8.62;10.82;102450.53;4975877;28;20463;-42
2021/12/15 05:56:04;;;;;;;80.13;34.63;;;;;;;8.63;10.47;102466.31;4977042;28;20431;-44
2021/12/15 05:58:32;;;;;;;90.20;33.27;;;;;;;8.62;9.76;102463.81;4976587;28;20435;-43
2021/12/15 06:01:00;;;;;;;84.73;32.77;;;;;;;8.62;8.64;102463.81;4976823;28;20441;-43
2021/12/15 06:03:29;;;;;;;81.27;31.40;;;;;;;8.62;8.82;102466.47;4975904;28;20455;-43
2021/12/15 06:05:57;;;;;;;81.03;32.67;;;;;;;8.63;8.47;102470.84;4976534;28;20941;-42
2021/12/15 06:08:26;;;;;;;92.03;33.23;;;;;;;8.61;8.23;102478.94;4976591;28;20833;-43
2021/12/15 06:10:53;;;;;;;78.43;32.47;;;;;;;8.62;8.16;102475.31;4976602;28;20807;-43
2021/12/15 06:13:22;;;;;;;77.77;31.73;;;;;;;8.62;8.89;102471.81;4975525;28;20997;-42
2021/12/15 06:15:51;;;;;;;96.60;33.87;;;;;;;8.64;9.24;102480.47;4976471;28;20438;-43
2021/12/15 06:18:19;;;;;;;101.27;34.30;;;;;;;8.59;8.78;102472.09;4976360;28;20435;-43
2021/12/15 06:20:50;;;;;;;70.23;32.90;;;;;;;8.59;7.20;102482.72;4976148;28;20438;-43
2021/12/15 06:23:20;;;;;;;87.43;33.77;;;;;;;8.62;6.83;102477.13;4975746;28;20861;-44
2021/12/15 06:25:51;;;;;;;79.83;33.30;;;;;;;8.62;7.49;102477.13;4976081;28;20449;-44
2021/12/15 06:28:19;;;;;;;70.67;32.50;;;;;;;8.65;7.19;102480.34;4976208;28;20428;-44
2021/12/15 06:30:47;;;;;;;78.53;33.47;;;;;;;8.66;7.70;102486.50;4976096;28;20438;-43
2021/12/15 06:33:16;;;;;;;80.77;32.63;;;;;;;8.63;7.90;102492.09;4975066;28;20459;-44
2021/12/15 06:35:52;;;;;;;63.83;32.30;;;;;;;8.67;7.28;102496.16;4976241;28;20435;-43
2021/12/15 06:38:22;;;;;;;77.63;33.60;;;;;;;8.65;7.75;102501.63;4974027;28;20434;-43
2021/12/15 06:40:51;;;;;;;76.33;35.10;;;;;;;8.66;7.89;102502.47;4976386;28;20431;-43
2021/12/15 06:43:19;;;;;;;86.53;33.40;;;;;;;8.70;7.76;102509.16;4975069;28;20474;-43
2021/12/15 06:45:58;;;;;;;74.40;34.57;;;;;;;8.69;8.80;102504.84;4975710;28;20427;-44
2021/12/15 06:59:26;;;;;;;71.73;32.53;;;;;;;8.69;9.65;102526.13;4975811;28;20438;-42
2021/12/15 07:01:54;;;;;;;83.87;33.57;;;;;;;8.71;9.35;102518.81;4975572;28;20435;-44
2021/12/15 07:04:23;;;;;;;97.73;35.57;;;;;;;8.72;9.37;102517.84;4974741;28;20506;-42
2021/12/15 07:06:55;;;;;;;68.97;34.70;;;;;;;8.74;10.43;102535.34;4975668;28;20590;-42
2021/12/15 07:09:24;;;;;;;84.70;35.63;;;;;;;8.75;11.36;102525.56;4975564;28;20523;-42
2021/12/15 07:11:52;;;;;;;89.47;35.07;;;;;;;8.74;12.12;102530.03;4975379;28;20439;-43
2021/12/15 07:14:21;;;;;;;77.20;33.37;;;;;;;8.73;12.66;102514.19;4974754;28;20478;-43
2021/12/15 07:16:52;;;;;;;74.27;30.43;;;;;;;8.75;13.04;102530.88;4975184;28;20435;-43
2021/12/15 07:19:30;;;;;;;68.80;32.00;;;;;;;8.76;13.25;102529.88;4975584;28;20837;-42
2021/12/15 07:22:09;;;;;;;70.70;32.53;;;;;;;8.74;13.37;102521.19;4975484;28;20445;-47
2021/12/15 07:24:38;;;;;;;79.00;32.57;;;;;;;8.73;12.77;102516.84;4974645;28;20841;-44
2021/12/15 07:27:07;;;;;;;74.03;33.40;;;;;;;8.74;12.33;102519.38;4975082;28;20832;-44
2021/12/15 07:29:36;;;;;;;71.83;34.53;;;;;;;8.77;13.33;102523.59;4975056;28;20458;-46
2021/12/15 07:32:05;;;;;;;68.20;33.53;;;;;;;8.76;14.48;102520.06;4975121;28;20955;-44
2021/12/15 07:34:32;;;;;;;73.03;34.17;;;;;;;8.78;13.91;102520.75;4974434;28;20467;-44
2021/12/15 07:37:00;;;;;;;56.63;30.73;;;;;;;8.79;14.62;102524.28;4975111;28;20435;-43
2021/12/15 07:39:28;;;;;;;61.43;30.87;;;;;;;8.79;14.98;102526.94;4974832;28;20436;-44
2021/12/15 07:42:06;;;;;;;72.17;33.27;;;;;;;8.77;15.72;102521.75;4974640;28;20430;-42
2021/12/15 07:44:34;;;;;;;67.50;33.33;;;;;;;8.79;16.50;102526.94;4974496;28;20478;-42
2021/12/15 07:47:04;;;;;;;54.67;32.03;;;;;;;8.80;17.66;102525.97;4974800;28;20486;-46
2021/12/15 07:49:33;;;;;;;61.83;31.47;;;;;;;8.80;18.91;102521.47;4974757;28;20445;-43
2021/12/15 07:52:04;;;;;;;57.53;32.20;;;;;;;8.79;19.59;102521.59;4974700;28;20442;-44
2021/12/15 07:54:34;;;;;;;66.37;31.70;;;;;;;8.75;21.33;102530.88;4973964;28;20475;-41
2021/12/15 07:57:08;;;;;;;61.93;30.67;;;;;;;8.72;21.96;102525.84;4974570;28;20411;-41
2021/12/15 07:59:36;;;;;;;70.57;33.97;;;;;;;8.70;20.46;102528.63;4974982;28;20427;-42
2021/12/15 08:02:04;;;;;;;65.87;33.30;;;;;;;8.69;19.63;102540.22;4974492;28;20438;-44
2021/12/15 08:04:32;;;;;;;61.63;33.20;;;;;;;8.73;18.93;102535.47;4973752;28;20477;-44
2021/12/15 08:07:00;;;;;;;54.83;29.20;;;;;;;8.72;18.65;102545.25;4974024;28;20484;-43
2021/12/15 08:09:28;;;;;;;46.23;31.40;;;;;;;8.76;18.49;102545.84;4973819;28;20454;-42
2021/12/15 08:11:55;;;;;;;55.30;30.80;;;;;;;8.72;19.06;102550.59;4974329;28;20461;-44
2021/12/15 08:14:24;;;;;;;52.83;28.70;;;;;;;8.75;18.65;102546.84;4973609;28;20493;-44
2021/12/15 08:16:52;;;;;;;48.07;29.00;;;;;;;8.80;18.94;102549.91;4974149;28;20435;-43
2021/12/15 08:19:20;;;;;;;44.37;28.27;;;;;;;8.82;21.99;102550.59;4974044;28;20445;-42
2021/12/15 08:21:48;;;;;;;47.53;28.30;;;;;;;8.82;24.34;102550.59;4974020;28;20439;-46
2021/12/15 08:24:16;;;;;;;45.83;27.57;;;;;;;8.80;26.02;102541.91;4973318;28;21016;-45
2021/12/15 08:26:44;;;;;;;51.80;27.13;;;;;;;8.82;26.38;102546.13;4973968;28;20945;-43
2021/12/15 08:29:12;;;;;;;44.10;27.53;;;;;;;8.85;26.58;102552.97;4973892;28;20475;-44
2021/12/15 08:31:41;;;;;;;45.73;28.23;;;;;;;8.88;26.72;102547.38;4974231;28;20512;-43
2021/12/15 08:34:09;;;;;;;48.47;28.10;;;;;;;8.90;28.60;102537.41;4973021;28;20897;-42
2021/12/15 08:36:38;;;;;;;53.30;28.50;;;;;;;8.93;30.55;102557.59;4973994;28;20464;-43
2021/12/15 08:39:07;;;;;;;46.80;28.13;;;;;;;8.88;32.03;102553.53;4971659;28;20447;-42
2021/12/15 08:41:36;;;;;;;45.33;26.70;;;;;;;8.89;30.79;102557.88;4966214;28;20431;-46
2021/12/15 08:44:06;;;;;;;54.47;29.07;;;;;;;8.89;31.27;102559.69;4972931;28;20471;-43
2021/12/15 08:46:39;;;;;;;50.97;28.30;;;;;;;8.87;32.63;102565.13;4973612;28;20981;-44
2021/12/15 08:49:12;;;;;;;56.50;29.97;;;;;;;8.86;32.41;102570.63;4973491;28;20980;-44
2021/12/15 08:51:41;;;;;;;55.37;28.97;;;;;;;8.84;33.07;102577.91;4973556;28;20442;-43
2021/12/15 08:54:14;;;;;;;46.90;26.30;;;;;;;8.82;31.85;102571.88;4972733;28;21211;-42
2021/12/15 08:56:43;;;;;;;61.47;28.47;;;;;;;8.81;31.87;102565.72;4973406;28;20435;-41
2021/12/15 08:59:12;;;;;;;67.17;28.50;;;;;;;8.80;32.16;102558.72;4973679;28;20450;-45
2021/12/15 09:01:42;;;;;;;57.23;28.13;;;;;;;8.86;31.75;102562.63;4973598;28;20446;-42
2021/12/15 09:04:12;;;;;;;47.70;26.17;;;;;;;8.88;31.83;102560.66;4972769;28;20475;-48
2021/12/15 09:06:41;;;;;;;52.63;28.93;;;;;;;8.89;32.58;102555.22;4973275;28;20446;-43
2021/12/15 09:09:12;;;;;;;51.23;28.00;;;;;;;8.92;34.01;102563.88;4973116;28;20999;-44
2021/12/15 09:11:40;;;;;;;52.57;27.27;;;;;;;8.98;35.24;102565.97;4973238;28;20423;-42
2021/12/15 09:14:10;;;;;;;57.80;31.00;;;;;;;9.00;37.64;102572.84;4972596;28;20474;-43
2021/12/15 09:16:39;;;;;;;65.93;32.03;;;;;;;9.04;39.53;102576.06;4973200;28;20451;-45
2021/12/15 09:19:07;;;;;;;60.20;29.63;;;;;;;9.06;41.51;102568.75;4973044;28;20438;-42
2021/12/15 09:21:38;;;;;;;60.30;28.97;;;;;;;9.10;43.04;102580.81;4973164;28;20792;-45
2021/12/15 09:24:07;;;;;;;50.10;27.20;;;;;;;9.07;45.49;102579.28;4972347;28;20899;-44
2021/12/15 09:26:37;;;;;;;40.30;25.90;;;;;;;9.06;47.03;102580.25;4973234;28;20439;-47
2021/12/15 09:29:05;;;;;;;46.27;26.07;;;;;;;9.11;47.23;102582.50;4973141;28;20856;-42
2021/12/15 09:31:34;;;;;;;47.90;23.67;;;;;;;9.13;48.46;102581.38;4973140;28;20438;-45
2021/12/15 09:34:03;;;;;;;42.30;25.63;;;;;;;9.18;49.78;102588.91;4972300;28;20471;-42
2021/12/15 09:36:31;;;;;;;43.13;23.27;;;;;;;9.22;51.57;102585.00;4972863;28;20447;-46
2021/12/15 09:39:07;;;;;;;36.33;22.50;;;;;;;9.24;54.95;102599.00;4971064;28;20439;-46
2021/12/15 09:41:35;;;;;;;33.37;20.47;;;;;;;9.23;58.21;102592.00;4965436;28;20439;-42
2021/12/15 09:44:08;;;;;;;40.17;19.47;;;;;;;9.29;60.39;102588.75;4972051;28;20474;-44
2021/12/15 09:46:53;;;;;;;39.67;20.30;;;;;;;9.33;62.91;102590.16;4972985;28;20489;-44
2021/12/15 10:03:33;;;;;;;24.70;15.77;;;;;;;9.41;73.92;102585.78;4947330;28;20538;-42
2021/12/15 10:06:17;;;;;;;28.97;16.50;;;;;;;9.45;74.38;102578.34;4972725;28;20441;-46
2021/12/15 10:11:47;;;;;;;24.47;17.17;;;;;;;9.53;75.50;102575.78;4972805;28;20443;-46
2021/12/15 10:19:53;;;;;;;33.53;15.70;;;;;;;9.57;79.19;102585.19;4973109;28;20520;-43
2021/12/15 10:22:32;;;;;;;35.97;18.00;;;;;;;9.53;79.49;102583.78;4972789;28;20431;-45
2021/12/15 10:25:05;;;;;;;32.37;16.37;;;;;;;9.53;79.21;102591.78;4972186;28;20466;-44
2021/12/15 10:27:38;;;;;;;32.90;19.03;;;;;;;9.51;79.54;102587.59;4972613;28;20431;-45
2021/12/15 10:30:14;;;;;;;35.03;18.77;;;;;;;9.48;77.29;102596.72;4972620;28;20644;-43
2021/12/15 10:32:45;;;;;;;34.77;17.87;;;;;;;9.52;75.59;102598.09;4975346;28;20441;-43
2021/12/15 10:35:17;;;;;;;32.10;18.90;;;;;;;9.53;75.23;102591.78;4975867;28;20988;-42
2021/12/15 10:38:24;;;;;;;27.53;16.33;;;;;;;9.49;74.92;102587.75;4976549;28;20408;-45
2021/12/15 10:40:57;;;;;;;36.87;19.00;;;;;;;9.56;74.45;102585.34;4962697;28;20416;-43
2021/12/15 10:43:30;;;;;;;27.90;17.70;;;;;;;9.58;73.48;102580.72;4975095;28;20477;-44
2021/12/15 10:46:03;;;;;;;33.67;18.77;;;;;;;9.61;75.47;102583.06;4975802;28;20420;-42
2021/12/15 10:48:36;;;;;;;34.93;18.67;;;;;;;9.68;74.84;102589.47;4976037;28;20474;-47
2021/12/15 10:51:20;;;;;;;33.43;15.77;;;;;;;9.78;75.60;102591.13;4975853;28;20427;-43
2021/12/15 10:53:48;;;;;;;28.40;16.60;;;;;;;9.78;78.47;102579.63;4975158;28;20467;-44
2021/12/15 10:56:19;;;;;;;36.17;17.30;;;;;;;9.87;79.90;102570.75;4975667;28;20957;-42
2021/12/15 10:58:52;;;;;;;30.73;17.13;;;;;;;9.87;81.45;102576.09;4975878;28;20439;-44
2021/12/15 11:01:43;;;;;;;25.27;16.13;;;;;;;9.80;81.25;102581.16;4975671;28;20431;-42
2021/12/15 11:04:34;;;;;;;30.80;16.13;;;;;;;9.76;80.94;102570.97;4975085;28;20471;-42
2021/12/15 11:07:28;;;;;;;36.93;16.23;;;;;;;9.77;80.32;102572.63;4975828;28;20411;-43
2021/12/15 11:10:02;;;;;;;23.73;17.23;;;;;;;9.73;79.96;102571.25;4975502;28;20479;-44
2021/12/15 11:12:34;;;;;;;26.43;16.50;;;;;;;9.74;79.27;102570.25;4975433;28;20422;-44
2021/12/15 11:15:08;;;;;;;26.87;15.77;;;;;;;9.68;79.31;102576.16;4974989;28;20551;-44
2021/12/15 11:17:38;;;;;;;32.80;17.67;;;;;;;9.71;79.29;102567.88;4975392;28;20430;-44
2021/12/15 11:20:11;;;;;;;21.53;15.47;;;;;;;9.69;78.59;102575.19;4975440;28;20438;-42
2021/12/15 11:22:55;;;;;;;29.43;16.10;;;;;;;9.70;78.04;102571.56;4975022;28;20435;-46
2021/12/15 11:25:33;;;;;;;31.40;17.63;;;;;;;9.60;79.14;102571.56;4974742;28;20482;-43
2021/12/15 11:28:05;;;;;;;32.30;18.50;;;;;;;9.62;76.77;102576.75;4975056;28;20928;-42
2021/12/15 11:30:39;;;;;;;27.37;16.33;;;;;;;9.61;77.71;102580.41;4975346;28;20463;-44
2021/12/15 11:33:09;;;;;;;33.97;17.83;;;;;;;9.56;77.37;102578.16;4975086;28;20476;-44
2021/12/15 11:35:39;;;;;;;38.07;18.90;;;;;;;9.55;76.51;102591.66;4974528;28;20471;-42
2021/12/15 11:38:13;;;;;;;34.93;18.33;;;;;;;9.54;75.23;102600.63;4973110;28;20776;-45
2021/12/15 11:40:48;;;;;;;30.03;18.83;;;;;;;9.59;73.72;102593.88;4974869;28;20431;-45
2021/12/15 11:43:30;;;;;;;32.53;18.30;;;;;;;9.53;74.52;102601.63;4973955;28;20462;-45
2021/12/15 11:46:01;;;;;;;25.73;16.93;;;;;;;9.51;75.39;102596.41;4974792;28;20885;-45
2021/12/15 11:48:32;;;;;;;30.30;17.23;;;;;;;9.51;75.04;102608.88;4974934;28;20473;-45
2021/12/15 11:51:04;;;;;;;23.53;16.90;;;;;;;9.55;75.42;102597.81;4974818;28;20851;-43
2021/12/15 11:53:35;;;;;;;30.73;17.30;;;;;;;9.57;76.45;102595.00;4974227;28;20534;-44
2021/12/15 11:56:24;;;;;;;23.87;16.53;;;;;;;9.55;77.68;102597.81;4974416;28;20445;-45
2021/12/15 11:58:56;;;;;;;23.50;15.30;;;;;;;9.59;78.11;102591.19;4974552;28;20956;-42
2021/12/15 12:02:06;;;;;;;31.37;15.10;;;;;;;9.59;79.66;102590.38;4974645;28;20442;-46
2021/12/15 12:04:38;;;;;;;20.70;14.70;;;;;;;9.57;79.90;102595.84;4895137;29;20477;-44
2021/12/15 12:07:20;;;;;;;21.17;14.07;;;;;;;9.56;80.98;102582.69;4964981;28;20458;-46
2021/12/15 12:09:51;;;;;;;21.67;14.40;;;;;;;9.57;80.59;102590.50;4974578;28;20585;-44
2021/12/15 12:12:22;;;;;;;20.50;13.63;;;;;;;9.57;80.42;102584.34;4974428;28;20901;-43
2021/12/15 12:14:50;;;;;;;28.83;13.50;;;;;;;9.60;80.62;102584.06;4973668;28;20874;-43
2021/12/15 12:17:22;;;;;;;19.07;13.53;;;;;;;9.58;82.44;102600.19;4974536;28;20442;-45
2021/12/15 12:19:56;;;;;;;14.43;12.73;;;;;;;9.56;82.28;102598.66;4974229;28;20963;-44
2021/12/15 12:22:26;;;;;;;25.27;14.57;;;;;;;9.51;82.64;102599.09;4974308;28;20508;-46
2021/12/15 12:24:57;;;;;;;22.93;14.03;;;;;;;9.51;81.75;102584.91;4973613;28;20966;-44
2021/12/15 12:27:27;;;;;;;20.50;12.70;;;;;;;9.45;82.10;102586.34;4973966;28;20792;-41
2021/12/15 12:29:57;;;;;;;21.53;13.50;;;;;;;9.44;81.52;102592.66;4974108;28;20474;-42